createdAt,value
2023-01-06T00:07:41.204Z,12.40
2023-01-06T00:17:48.054Z,4.37
2023-01-06T00:27:56.012Z,4.17
2023-01-06T00:37:58.586Z,5.30
2023-01-06T00:48:00.650Z,3.67
2023-01-06T00:58:05.021Z,3.00
2023-01-06T01:08:12.055Z,4.77
2023-01-06T01:18:16.434Z,2.83
2023-01-06T01:28:21.313Z,4.07
2023-01-06T01:38:26.962Z,5.43
2023-01-06T01:48:35.081Z,4.43
2023-01-06T01:58:41.247Z,4.93
2023-01-06T02:09:26.838Z,4.43
2023-01-06T02:19:59.098Z,5.20
2023-01-06T02:30:01.162Z,6.73
2023-01-06T02:40:19.940Z,4.07
2023-01-06T02:51:03.420Z,5.27
2023-01-06T03:01:17.122Z,4.07
2023-01-06T03:11:19.449Z,3.30
2023-01-06T03:21:27.619Z,3.50
2023-01-06T03:31:43.954Z,3.13
2023-01-06T03:42:09.788Z,5.63
2023-01-06T03:52:31.655Z,3.53
2023-01-06T04:02:40.203Z,5.07
2023-01-06T04:12:45.553Z,5.23
2023-01-06T04:22:56.042Z,4.93
2023-01-06T04:33:03.673Z,5.80
2023-01-06T04:43:14.429Z,5.37
2023-01-06T04:53:16.555Z,4.70
2023-01-06T05:03:18.600Z,4.53
2023-01-06T05:13:21.511Z,3.07
2023-01-06T05:23:28.346Z,3.77
2023-01-06T05:33:34.731Z,4.40
2023-01-06T05:43:37.461Z,5.43
2023-01-06T05:53:42.217Z,5.27
2023-01-06T06:03:47.085Z,4.57
2023-01-06T06:13:56.503Z,5.90
2023-01-06T06:23:59.821Z,5.60
2023-01-06T06:34:03.520Z,4.87
2023-01-06T06:44:08.503Z,4.63
2023-01-06T06:54:10.644Z,6.03
2023-01-06T07:04:12.922Z,4.47
2023-01-06T07:14:15.184Z,4.20
2023-01-06T07:24:17.474Z,5.87
2023-01-06T07:34:24.320Z,5.07
2023-01-06T07:44:28.754Z,5.47
2023-01-06T07:54:32.049Z,5.47
2023-01-06T08:04:37.586Z,5.37
2023-01-06T08:14:44.418Z,5.80
2023-01-06T08:24:46.634Z,5.50
2023-01-06T08:34:51.183Z,4.70
2023-01-06T08:44:53.324Z,6.30
2023-01-06T08:55:04.393Z,6.10
2023-01-06T09:05:09.326Z,7.23
2023-01-06T09:15:12.077Z,6.07
2023-01-06T09:25:14.282Z,9.43
2023-01-06T09:35:16.429Z,6.10
2023-01-06T09:45:21.732Z,5.33
2023-01-06T09:55:42.777Z,5.63
2023-01-06T10:06:04.526Z,6.63
2023-01-06T10:16:26.922Z,6.10
2023-01-06T10:26:32.493Z,6.53
2023-01-06T10:36:43.361Z,6.77
2023-01-06T10:46:51.033Z,15.57
2023-01-06T10:57:00.006Z,6.10
2023-01-06T11:07:08.395Z,6.23
2023-01-06T11:17:21.808Z,7.27
2023-01-06T11:27:27.927Z,8.23
2023-01-06T11:37:35.947Z,9.37
2023-01-06T11:47:38.054Z,13.13
2023-01-06T11:57:54.566Z,9.33
2023-01-06T12:07:57.864Z,9.23
2023-01-06T12:18:08.242Z,7.80
2023-01-06T12:28:35.759Z,8.43
2023-01-06T12:38:56.358Z,8.77
2023-01-06T12:49:12.337Z,8.23
2023-01-06T12:59:28.046Z,10.70
2023-01-06T13:09:46.561Z,9.90
2023-01-06T13:19:58.629Z,9.37
2023-01-06T13:30:06.656Z,9.53
2023-01-06T13:40:12.625Z,10.40
2023-01-06T13:50:20.415Z,9.80
2023-01-06T14:00:28.999Z,9.67
2023-01-06T14:10:43.527Z,9.27
2023-01-06T14:20:48.097Z,10.17
2023-01-06T14:31:28.744Z,13.10
2023-01-06T14:41:33.852Z,10.40
2023-01-06T14:51:36.156Z,9.93
2023-01-06T15:01:42.906Z,12.13
2023-01-06T15:11:50.417Z,14.00
2023-01-06T15:21:55.296Z,14.37
2023-01-06T15:32:01.134Z,18.10
2023-01-06T15:42:05.604Z,17.90
2023-01-06T15:52:23.612Z,17.90
2023-01-06T16:02:29.347Z,16.37
2023-01-06T16:12:31.690Z,19.07
2023-01-06T16:22:48.703Z,9.87
2023-01-06T16:32:55.815Z,16.53
2023-01-06T16:43:02.376Z,17.47
2023-01-06T16:53:18.539Z,19.20
2023-01-06T17:03:21.902Z,10.50
2023-01-06T17:13:36.464Z,25.57
2023-01-06T17:24:02.153Z,25.37
2023-01-06T17:34:21.984Z,33.13
2023-01-06T17:44:35.872Z,35.53
2023-01-06T17:54:59.169Z,37.27
2023-01-06T18:05:34.568Z,39.07
2023-01-06T18:15:41.197Z,35.23
2023-01-06T18:25:50.207Z,35.53
2023-01-06T18:35:57.648Z,39.10
2023-01-06T18:46:05.187Z,41.87
2023-01-06T18:56:16.670Z,43.17
2023-01-06T19:06:35.907Z,41.27
2023-01-06T19:16:44.051Z,39.77
2023-01-06T19:26:50.017Z,45.10
2023-01-06T19:36:55.110Z,41.50
2023-01-06T19:47:24.946Z,36.67
2023-01-06T19:57:29.435Z,37.10
2023-01-06T20:07:33.790Z,28.50
2023-01-06T20:17:36.083Z,38.97
2023-01-06T20:27:43.449Z,40.00
2023-01-06T20:37:51.046Z,32.40
2023-01-06T20:48:00.143Z,34.67
2023-01-06T20:58:07.130Z,32.27
2023-01-06T21:08:09.722Z,32.47
2023-01-06T21:18:13.132Z,37.87
2023-01-06T21:28:21.563Z,30.33
2023-01-06T21:38:25.939Z,37.73
2023-01-06T21:48:28.183Z,33.17
2023-01-06T21:58:33.988Z,41.83
2023-01-06T22:08:40.494Z,23.73
2023-01-06T22:18:51.131Z,39.27
2023-01-06T22:28:55.140Z,39.90
2023-01-06T22:39:02.030Z,33.23
2023-01-06T22:49:10.264Z,33.07
2023-01-06T22:59:15.597Z,35.67
2023-01-06T23:09:34.716Z,37.93
2023-01-06T23:19:41.669Z,33.80
2023-01-06T23:29:48.659Z,32.73
2023-01-06T23:39:53.553Z,34.60
2023-01-06T23:49:55.991Z,35.17
2023-01-06T23:59:58.237Z,35.00
